New Orleans, Louisiana
Traffic Map
Current Weather Conditions
New Orleans, Louisiana
Scattered Clouds
Scattered Clouds
36°
Feels Like: 41°
Wind Chill: 36° Ceiling: Unl
Heat Index: 41° Visibility: mi
Dew Point: 22° Wind: 9mph
Humidity: 44% Direction: 180° (S)
Pressure: 30.11in Gusts: 0mph
Raw Report DataK7N0 072015Z AUTO 18008KT SCT043 SCT050 36/22 A3011 RMK AO1
Traffic Incident Summary
Active as of:
Severity:
Category:
InformationThere was an issue retrieving the traffic information for this location. Please try a different location or try again shortly.
Advertisements
Track Severe Weather on mobile